createdAt,value
2022-10-20T00:01:12.258Z,19.50
2022-10-20T00:03:39.693Z,19.50
2022-10-20T00:06:13.615Z,19.40
2022-10-20T00:08:42.074Z,19.50
2022-10-20T00:11:11.164Z,19.40
2022-10-20T00:13:39.789Z,19.40
2022-10-20T00:16:07.809Z,19.40
2022-10-20T00:18:35.481Z,19.30
2022-10-20T00:21:16.174Z,19.30
2022-10-20T00:23:43.566Z,19.30
2022-10-20T00:26:16.556Z,19.20
2022-10-20T00:28:44.909Z,19.20
2022-10-20T00:31:12.736Z,19.20
2022-10-20T00:33:57.605Z,19.10
2022-10-20T00:36:25.204Z,19.10
2022-10-20T00:38:57.880Z,19.10
2022-10-20T00:41:25.326Z,19.10
2022-10-20T00:43:53.898Z,19.10
2022-10-20T00:46:43.561Z,19.00
2022-10-20T00:49:22.645Z,19.00
2022-10-20T00:51:52.681Z,19.10
2022-10-20T00:54:25.349Z,19.00
2022-10-20T00:56:55.520Z,19.00
2022-10-20T00:59:28.609Z,19.00
2022-10-20T01:01:57.023Z,19.00
2022-10-20T01:04:26.181Z,19.00
2022-10-20T01:06:53.696Z,19.00
2022-10-20T01:09:21.334Z,19.00
2022-10-20T01:12:26.668Z,19.10
2022-10-20T01:18:22.945Z,19.00
2022-10-20T01:21:11.576Z,19.00
2022-10-20T01:23:51.132Z,18.90
2022-10-20T01:26:42.879Z,18.90
2022-10-20T01:29:19.379Z,18.90
2022-10-20T01:32:15.849Z,18.90
2022-10-20T01:34:48.025Z,18.90
2022-10-20T01:37:50.926Z,18.90
2022-10-20T01:40:40.684Z,18.90
2022-10-20T01:43:12.286Z,18.80
2022-10-20T01:45:44.760Z,18.70
2022-10-20T01:48:14.295Z,18.70
2022-10-20T01:50:43.310Z,18.70
2022-10-20T01:53:10.627Z,18.60
2022-10-20T01:55:39.065Z,18.60
2022-10-20T01:58:15.042Z,18.60
2022-10-20T02:00:45.128Z,18.50
2022-10-20T02:03:34.673Z,18.50
2022-10-20T02:06:25.910Z,18.50
2022-10-20T02:08:59.905Z,18.50
2022-10-20T02:11:53.423Z,18.60
2022-10-20T02:14:22.809Z,18.50
2022-10-20T02:16:55.496Z,18.50
2022-10-20T02:19:25.782Z,18.50
2022-10-20T02:21:56.385Z,18.50
2022-10-20T02:24:29.529Z,18.50
2022-10-20T02:27:02.043Z,18.50
2022-10-20T02:29:34.894Z,18.50
2022-10-20T02:32:02.829Z,18.40
2022-10-20T02:34:30.169Z,18.40
2022-10-20T02:36:59.160Z,18.40
2022-10-20T02:39:27.138Z,18.40
2022-10-20T02:41:54.966Z,18.40
2022-10-20T02:44:22.992Z,18.30
2022-10-20T02:46:50.353Z,18.30
2022-10-20T02:49:17.942Z,18.30
2022-10-20T02:51:45.217Z,18.30
2022-10-20T02:54:12.558Z,18.30
2022-10-20T02:56:39.839Z,18.30
2022-10-20T02:59:07.126Z,18.30
2022-10-20T03:01:34.512Z,18.20
2022-10-20T03:04:01.845Z,18.20
2022-10-20T03:06:29.141Z,18.20
2022-10-20T03:08:56.595Z,18.20
2022-10-20T03:11:24.276Z,18.20
2022-10-20T03:13:51.513Z,18.20
2022-10-20T03:16:18.919Z,18.10
2022-10-20T03:18:46.164Z,18.10
2022-10-20T03:21:13.787Z,18.10
2022-10-20T03:23:41.081Z,18.10
2022-10-20T03:26:10.847Z,18.00
2022-10-20T03:28:39.020Z,18.00
2022-10-20T03:31:07.053Z,17.90
2022-10-20T03:33:34.675Z,17.90
2022-10-20T03:36:02.109Z,17.90
2022-10-20T03:38:29.437Z,17.90
2022-10-20T03:40:56.846Z,17.90
2022-10-20T03:43:24.185Z,17.80
2022-10-20T03:45:51.585Z,17.80
2022-10-20T03:48:18.894Z,17.80
2022-10-20T03:50:46.208Z,17.70
2022-10-20T03:53:14.191Z,17.70
2022-10-20T03:55:41.441Z,17.70
2022-10-20T03:58:08.777Z,17.70
2022-10-20T04:00:36.196Z,17.70
2022-10-20T04:03:03.705Z,17.60
2022-10-20T04:05:31.234Z,17.60
2022-10-20T04:07:58.591Z,17.60
2022-10-20T04:10:25.876Z,17.60
2022-10-20T04:12:53.165Z,17.60
2022-10-20T04:15:20.564Z,17.50
2022-10-20T04:17:47.877Z,17.50
2022-10-20T04:20:15.209Z,17.50
2022-10-20T04:22:42.573Z,17.40
2022-10-20T04:25:12.086Z,17.40
2022-10-20T04:27:40.258Z,17.40
2022-10-20T04:30:08.779Z,17.40
2022-10-20T04:32:36.248Z,17.40
2022-10-20T04:35:03.992Z,17.40
2022-10-20T04:37:31.484Z,17.40
2022-10-20T04:39:58.856Z,17.40
2022-10-20T04:42:26.194Z,17.40
2022-10-20T04:44:53.590Z,17.30
2022-10-20T04:47:21.689Z,17.30
2022-10-20T04:49:49.037Z,17.30
2022-10-20T04:52:17.343Z,17.40
2022-10-20T04:54:44.694Z,17.40
2022-10-20T04:57:12.037Z,17.40
2022-10-20T04:59:39.314Z,17.40
2022-10-20T05:02:06.670Z,17.40
2022-10-20T05:04:34.084Z,17.40
2022-10-20T05:07:01.391Z,17.40
2022-10-20T05:09:28.882Z,17.40
2022-10-20T05:11:56.271Z,17.40
2022-10-20T05:14:23.866Z,17.40
2022-10-20T05:16:51.592Z,17.40
2022-10-20T05:19:18.887Z,17.40
2022-10-20T05:21:46.172Z,17.40
2022-10-20T05:24:20.834Z,17.40
2022-10-20T05:26:49.533Z,17.40
2022-10-20T05:29:17.001Z,17.40
2022-10-20T05:31:44.693Z,17.40
2022-10-20T05:34:12.474Z,17.40
2022-10-20T05:36:39.944Z,17.40
2022-10-20T05:39:07.275Z,17.40
2022-10-20T05:41:38.029Z,17.40
2022-10-20T05:44:09.001Z,17.40
2022-10-20T05:46:41.255Z,17.40
2022-10-20T05:49:16.607Z,17.50
2022-10-20T05:51:45.642Z,17.50
2022-10-20T05:54:14.028Z,17.50
2022-10-20T05:56:41.695Z,17.50
2022-10-20T05:59:10.211Z,17.50
2022-10-20T06:01:50.469Z,17.50
2022-10-20T06:04:23.575Z,17.50
2022-10-20T06:06:52.538Z,17.60
2022-10-20T06:09:22.026Z,17.60
2022-10-20T06:11:49.527Z,17.60
2022-10-20T06:14:17.466Z,17.70
2022-10-20T06:16:44.928Z,17.70
2022-10-20T06:19:12.252Z,17.80
2022-10-20T06:21:39.793Z,17.90
2022-10-20T06:24:07.490Z,17.90
2022-10-20T06:26:38.920Z,18.00
2022-10-20T06:29:09.646Z,18.00
2022-10-20T06:31:42.055Z,18.10
2022-10-20T06:34:13.377Z,18.20
2022-10-20T06:36:42.167Z,18.30
2022-10-20T06:39:12.975Z,18.40
2022-10-20T06:41:40.985Z,18.50
2022-10-20T06:44:21.004Z,18.60
2022-10-20T06:46:49.040Z,18.60
2022-10-20T06:49:16.363Z,18.70
2022-10-20T06:51:43.670Z,18.80
2022-10-20T06:54:11.041Z,18.90
2022-10-20T06:56:39.576Z,19.00
2022-10-20T06:59:07.011Z,19.10
2022-10-20T07:01:36.195Z,19.10
2022-10-20T07:04:10.475Z,19.20
2022-10-20T07:06:40.360Z,19.20
2022-10-20T07:09:11.476Z,19.30
2022-10-20T07:11:39.008Z,19.30
2022-10-20T07:14:06.350Z,19.30
2022-10-20T07:16:35.026Z,19.40
2022-10-20T07:19:04.477Z,19.40
2022-10-20T07:21:36.527Z,19.50
2022-10-20T07:24:06.674Z,19.50
2022-10-20T07:26:36.452Z,19.60
2022-10-20T07:29:04.862Z,19.60
2022-10-20T07:31:35.913Z,19.60
2022-10-20T07:34:23.771Z,19.70
2022-10-20T07:36:52.404Z,19.70
2022-10-20T07:39:19.794Z,19.90
2022-10-20T07:41:48.158Z,20.00
2022-10-20T07:44:16.686Z,20.00
2022-10-20T07:46:44.737Z,20.10
2022-10-20T07:51:59.445Z,20.30
2022-10-20T07:54:26.880Z,20.50
2022-10-20T07:56:54.236Z,20.60
2022-10-20T07:59:21.608Z,20.70
2022-10-20T08:01:49.040Z,20.80
2022-10-20T08:04:16.419Z,20.90
2022-10-20T08:06:43.811Z,21.00
2022-10-20T08:09:11.168Z,21.20
2022-10-20T08:11:38.503Z,21.30
2022-10-20T08:14:05.777Z,21.30
2022-10-20T08:19:21.322Z,21.40
2022-10-20T08:21:48.730Z,21.50
2022-10-20T08:24:16.088Z,21.50
2022-10-20T08:26:43.443Z,21.60
2022-10-20T08:29:12.276Z,21.60
2022-10-20T08:31:40.251Z,21.70
2022-10-20T08:34:08.167Z,21.70
2022-10-20T08:36:37.202Z,21.70
2022-10-20T08:39:06.244Z,21.70
2022-10-20T08:42:02.664Z,21.70
2022-10-20T08:44:35.024Z,21.70
2022-10-20T08:47:05.141Z,21.80
2022-10-20T08:49:35.026Z,21.80
2022-10-20T08:52:02.596Z,21.90
2022-10-20T08:54:34.107Z,21.90
2022-10-20T08:57:01.479Z,22.00
2022-10-20T08:59:34.694Z,22.10
2022-10-20T09:02:03.823Z,22.20
2022-10-20T09:04:36.061Z,22.30
2022-10-20T09:07:10.164Z,22.40
2022-10-20T09:09:37.733Z,22.50
2022-10-20T09:12:07.707Z,22.60
2022-10-20T09:14:37.313Z,22.70
2022-10-20T09:17:09.125Z,22.70
2022-10-20T09:19:39.285Z,22.70
2022-10-20T09:22:07.453Z,22.60
2022-10-20T09:24:36.152Z,22.40
2022-10-20T09:27:33.421Z,22.40
2022-10-20T09:30:35.592Z,22.40
2022-10-20T09:33:31.529Z,22.50
2022-10-20T09:36:04.202Z,22.60
2022-10-20T09:38:35.181Z,22.70
2022-10-20T09:41:07.019Z,22.80
2022-10-20T09:43:34.461Z,22.90
2022-10-20T09:46:06.798Z,23.00
2022-10-20T09:48:41.909Z,22.90
2022-10-20T09:51:15.934Z,23.10
2022-10-20T09:54:06.168Z,22.90
2022-10-20T09:56:38.816Z,23.10
2022-10-20T09:59:29.301Z,23.00
2022-10-20T10:01:59.529Z,23.20
2022-10-20T10:04:36.216Z,23.60
2022-10-20T10:07:25.116Z,24.00
2022-10-20T10:10:05.432Z,25.00
2022-10-20T10:12:36.123Z,26.30
2022-10-20T10:15:28.934Z,27.80
2022-10-20T10:17:57.471Z,29.00
2022-10-20T10:20:27.860Z,30.60
2022-10-20T10:23:27.367Z,31.80
2022-10-20T10:25:59.156Z,32.60
2022-10-20T10:28:40.125Z,33.50
2022-10-20T10:31:21.467Z,33.70
2022-10-20T10:33:52.880Z,33.40
2022-10-20T10:36:35.848Z,33.40
2022-10-20T10:39:07.003Z,34.70
2022-10-20T10:41:42.821Z,35.10
2022-10-20T10:44:13.170Z,35.60
2022-10-20T10:46:47.603Z,36.70
2022-10-20T10:49:42.062Z,37.60
2022-10-20T10:52:28.652Z,38.10
2022-10-20T10:55:11.736Z,38.50
2022-10-20T10:57:47.634Z,38.70
2022-10-20T11:00:40.641Z,39.10
2022-10-20T11:03:16.993Z,39.80
2022-10-20T11:06:03.714Z,40.00
2022-10-20T11:09:00.028Z,40.30
2022-10-20T11:11:49.744Z,40.60
2022-10-20T11:14:28.986Z,40.20
2022-10-20T11:17:21.912Z,40.40
2022-10-20T11:20:14.422Z,40.90
2022-10-20T11:22:41.638Z,41.10
2022-10-20T11:25:29.837Z,41.50
2022-10-20T11:27:58.899Z,41.20
2022-10-20T11:30:27.514Z,40.00
2022-10-20T11:33:17.067Z,39.30
2022-10-20T11:36:03.295Z,39.50
2022-10-20T11:38:46.998Z,39.80
2022-10-20T11:41:35.333Z,40.20
2022-10-20T11:44:12.384Z,40.50
2022-10-20T11:46:52.897Z,40.70
2022-10-20T11:49:20.539Z,40.40
2022-10-20T11:52:14.205Z,40.20
2022-10-20T11:55:04.877Z,40.00
2022-10-20T11:57:43.877Z,38.50
2022-10-20T12:00:32.677Z,38.20
2022-10-20T12:03:02.779Z,38.00
2022-10-20T12:05:45.961Z,38.00
2022-10-20T12:08:54.014Z,37.60
2022-10-20T12:11:48.052Z,37.10
2022-10-20T12:14:15.496Z,37.30
2022-10-20T12:16:52.138Z,37.80
2022-10-20T12:19:25.229Z,38.00
2022-10-20T12:21:58.051Z,38.00
2022-10-20T12:24:35.314Z,38.00
2022-10-20T12:27:17.494Z,37.00
2022-10-20T12:29:44.807Z,36.40
2022-10-20T12:32:55.146Z,36.40
2022-10-20T12:35:22.377Z,36.80
2022-10-20T12:38:04.548Z,36.60
2022-10-20T12:40:41.067Z,35.90
2022-10-20T12:43:29.875Z,35.00
2022-10-20T12:46:03.320Z,33.70
2022-10-20T12:48:34.905Z,32.80
2022-10-20T12:51:06.392Z,31.60
2022-10-20T12:53:34.354Z,30.50
2022-10-20T12:56:07.782Z,29.60
2022-10-20T12:58:56.594Z,29.10
2022-10-20T13:01:24.015Z,28.70
2022-10-20T13:03:52.724Z,28.40
2022-10-20T13:06:40.853Z,28.10
2022-10-20T13:09:21.231Z,27.70
2022-10-20T13:12:00.176Z,27.70
2022-10-20T13:14:41.493Z,27.70
2022-10-20T13:17:35.262Z,27.80
2022-10-20T13:20:27.246Z,27.70
2022-10-20T13:22:55.794Z,27.50
2022-10-20T13:25:38.454Z,27.40
2022-10-20T13:28:24.843Z,27.30
2022-10-20T13:31:08.981Z,27.20
2022-10-20T13:34:03.198Z,26.90
2022-10-20T13:36:46.706Z,26.80
2022-10-20T13:39:38.985Z,26.70
2022-10-20T13:42:09.288Z,26.70
2022-10-20T13:45:13.920Z,26.60
2022-10-20T13:48:05.617Z,26.50
2022-10-20T13:50:39.761Z,26.20
2022-10-20T13:53:20.681Z,26.10
2022-10-20T13:56:08.424Z,26.10
2022-10-20T13:58:35.879Z,25.90
2022-10-20T14:01:06.206Z,25.90
2022-10-20T14:03:54.069Z,25.90
2022-10-20T14:06:27.236Z,26.00
2022-10-20T14:08:55.029Z,25.90
2022-10-20T14:11:22.865Z,25.80
2022-10-20T14:13:50.690Z,25.70
2022-10-20T14:16:25.074Z,25.70
2022-10-20T14:19:05.770Z,25.80
2022-10-20T14:21:49.294Z,25.70
2022-10-20T14:24:40.330Z,25.70
2022-10-20T14:27:15.728Z,25.60
2022-10-20T14:29:44.038Z,25.40
2022-10-20T14:32:18.674Z,25.10
2022-10-20T14:35:10.631Z,25.10
2022-10-20T14:37:43.420Z,25.10
2022-10-20T14:40:30.968Z,25.00
2022-10-20T14:43:21.165Z,25.00
2022-10-20T14:45:57.785Z,24.90
2022-10-20T14:48:41.272Z,24.80
2022-10-20T14:51:27.907Z,24.90
2022-10-20T14:54:15.053Z,24.90
2022-10-20T14:57:01.986Z,24.90
2022-10-20T14:59:32.176Z,24.70
2022-10-20T15:02:09.636Z,24.50
2022-10-20T15:04:39.213Z,24.50
2022-10-20T15:07:28.546Z,24.50
2022-10-20T15:10:09.368Z,24.50
2022-10-20T15:12:36.837Z,24.50
2022-10-20T15:15:08.013Z,24.40
2022-10-20T15:17:46.404Z,24.50
2022-10-20T15:20:33.385Z,24.50
2022-10-20T15:23:18.676Z,24.50
2022-10-20T15:25:45.931Z,24.50
2022-10-20T15:28:52.001Z,24.50
2022-10-20T15:31:29.079Z,24.60
2022-10-20T15:33:57.896Z,24.50
2022-10-20T15:36:29.752Z,24.50
2022-10-20T15:38:57.263Z,24.50
2022-10-20T15:41:30.093Z,24.50
2022-10-20T15:44:13.434Z,24.40
2022-10-20T15:46:42.205Z,24.40
2022-10-20T15:49:09.828Z,24.30
2022-10-20T15:51:40.130Z,24.30
2022-10-20T15:54:07.932Z,24.30
2022-10-20T15:56:35.492Z,24.30
2022-10-20T15:59:03.168Z,24.30
2022-10-20T16:01:30.670Z,24.30
2022-10-20T16:03:58.373Z,24.30
2022-10-20T16:06:25.719Z,24.20
2022-10-20T16:08:53.140Z,24.10
2022-10-20T16:11:21.365Z,24.10
2022-10-20T16:13:49.163Z,24.10
2022-10-20T16:16:19.431Z,24.00
2022-10-20T16:18:47.163Z,24.00
2022-10-20T16:21:14.553Z,23.90
2022-10-20T16:23:43.998Z,24.00
2022-10-20T16:26:14.352Z,23.90
2022-10-20T16:28:41.972Z,23.90
2022-10-20T16:31:11.511Z,23.90
2022-10-20T16:33:38.932Z,23.80
2022-10-20T16:36:08.967Z,23.80
2022-10-20T16:38:39.913Z,23.70
2022-10-20T16:41:10.338Z,23.70
2022-10-20T16:43:43.485Z,23.60
2022-10-20T16:46:12.265Z,23.60
2022-10-20T16:48:42.558Z,23.50
2022-10-20T16:51:12.243Z,23.50
2022-10-20T16:53:39.583Z,23.30
2022-10-20T16:56:07.650Z,23.30
2022-10-20T16:58:35.427Z,23.30
2022-10-20T17:01:09.693Z,23.20
2022-10-20T17:03:41.290Z,23.20
2022-10-20T17:06:09.746Z,23.10
2022-10-20T17:08:38.204Z,23.10
2022-10-20T17:11:09.199Z,23.10
2022-10-20T17:13:38.279Z,23.00
2022-10-20T17:16:14.128Z,23.00
2022-10-20T17:18:41.488Z,22.90
2022-10-20T17:21:09.537Z,22.90
2022-10-20T17:23:41.797Z,22.90
2022-10-20T17:26:14.308Z,22.80
2022-10-20T17:28:42.174Z,22.80
2022-10-20T17:31:11.874Z,22.70
2022-10-20T17:33:39.627Z,22.70
2022-10-20T17:36:17.747Z,22.60
2022-10-20T17:38:55.913Z,22.60
2022-10-20T17:41:34.080Z,22.60
2022-10-20T17:44:10.387Z,22.50
2022-10-20T17:46:43.458Z,22.50
2022-10-20T17:49:15.548Z,22.50
2022-10-20T17:51:44.297Z,22.50
2022-10-20T17:54:11.662Z,22.40
2022-10-20T17:56:40.175Z,22.40
2022-10-20T17:59:08.837Z,22.40
2022-10-20T18:01:38.645Z,22.40
2022-10-20T18:04:12.152Z,22.40
2022-10-20T18:06:40.808Z,22.40
2022-10-20T18:09:11.248Z,22.40
2022-10-20T18:11:40.522Z,22.40
2022-10-20T18:14:07.896Z,22.40
2022-10-20T18:16:37.042Z,22.40
2022-10-20T18:19:05.726Z,22.40
2022-10-20T18:21:33.763Z,22.40
2022-10-20T18:24:03.950Z,22.40
2022-10-20T18:26:33.501Z,22.40
2022-10-20T18:29:02.237Z,22.40
2022-10-20T18:31:31.849Z,22.40
2022-10-20T18:34:05.746Z,22.30
2022-10-20T18:36:36.897Z,22.30
2022-10-20T18:39:07.390Z,22.30
2022-10-20T18:41:38.258Z,22.20
2022-10-20T18:44:09.984Z,22.20
2022-10-20T18:46:37.830Z,22.30
2022-10-20T18:49:09.525Z,22.20
2022-10-20T18:51:37.152Z,22.20
2022-10-20T18:54:06.336Z,22.20
2022-10-20T18:56:34.552Z,22.20
2022-10-20T18:59:04.352Z,22.20
2022-10-20T19:01:34.977Z,22.20
2022-10-20T19:04:03.784Z,22.10
2022-10-20T19:06:42.698Z,22.10
2022-10-20T19:09:14.561Z,22.10
2022-10-20T19:11:42.306Z,22.10
2022-10-20T19:14:11.412Z,22.10
2022-10-20T19:16:39.750Z,22.10
2022-10-20T19:19:08.600Z,22.10
2022-10-20T19:21:36.875Z,22.00
2022-10-20T19:24:11.634Z,22.00
2022-10-20T19:26:52.668Z,22.00
2022-10-20T19:29:30.595Z,22.00
2022-10-20T19:32:01.143Z,22.00
2022-10-20T19:34:39.638Z,22.00
2022-10-20T19:37:08.274Z,22.00
2022-10-20T19:39:40.373Z,22.00
2022-10-20T19:42:08.240Z,22.00
2022-10-20T19:44:36.723Z,22.00
2022-10-20T19:47:05.825Z,21.90
2022-10-20T19:49:34.234Z,22.00
2022-10-20T19:52:02.385Z,21.90
2022-10-20T19:54:30.344Z,21.90
2022-10-20T19:56:57.903Z,21.90
2022-10-20T19:59:26.658Z,21.90
2022-10-20T20:01:54.627Z,21.90
2022-10-20T20:04:22.530Z,21.80
2022-10-20T20:06:50.521Z,21.70
2022-10-20T20:09:18.462Z,21.70
2022-10-20T20:11:46.544Z,21.70
2022-10-20T20:14:18.439Z,21.70
2022-10-20T20:16:47.189Z,21.70
2022-10-20T20:19:16.683Z,21.70
2022-10-20T20:21:44.878Z,21.70
2022-10-20T20:24:13.564Z,21.60
2022-10-20T20:26:41.003Z,21.60
2022-10-20T20:29:08.322Z,21.60
2022-10-20T20:31:35.662Z,21.50
2022-10-20T20:34:03.123Z,21.50
2022-10-20T20:36:30.906Z,21.50
2022-10-20T20:38:59.567Z,21.50
2022-10-20T20:41:28.421Z,21.40
2022-10-20T20:43:55.963Z,21.40
2022-10-20T20:46:24.570Z,21.40
2022-10-20T20:48:51.871Z,21.30
2022-10-20T20:51:19.234Z,21.30
2022-10-20T20:53:46.978Z,21.30
2022-10-20T20:56:16.284Z,21.30
2022-10-20T20:58:49.030Z,21.20
2022-10-20T21:01:27.867Z,21.20
2022-10-20T21:03:57.411Z,21.20
2022-10-20T21:06:33.308Z,21.20
2022-10-20T21:09:08.746Z,21.20
2022-10-20T21:11:36.675Z,21.20
2022-10-20T21:14:04.549Z,21.20
2022-10-20T21:16:34.402Z,21.20
2022-10-20T21:19:05.685Z,21.20
2022-10-20T21:21:35.661Z,21.10
2022-10-20T21:24:04.504Z,21.10
2022-10-20T21:26:32.816Z,21.10
2022-10-20T21:29:00.242Z,21.10
2022-10-20T21:31:29.356Z,21.10
2022-10-20T21:33:59.158Z,21.10
2022-10-20T21:36:28.141Z,21.10
2022-10-20T21:38:55.920Z,21.10
2022-10-20T21:41:32.432Z,21.00
2022-10-20T21:44:01.814Z,20.90
2022-10-20T21:46:32.033Z,20.90
2022-10-20T21:49:01.761Z,20.90
2022-10-20T21:51:34.534Z,20.90
2022-10-20T21:54:07.396Z,20.90
2022-10-20T21:56:40.150Z,20.90
2022-10-20T21:59:26.608Z,20.80
2022-10-20T22:01:56.820Z,20.80
2022-10-20T22:04:26.499Z,20.70
2022-10-20T22:06:54.712Z,20.70
2022-10-20T22:09:22.697Z,20.70
2022-10-20T22:11:52.704Z,20.60
2022-10-20T22:14:20.079Z,20.60
2022-10-20T22:16:47.748Z,20.60
2022-10-20T22:19:18.379Z,20.50
2022-10-20T22:21:47.712Z,20.50
2022-10-20T22:24:16.466Z,20.50
2022-10-20T22:26:43.728Z,20.50
2022-10-20T22:29:11.620Z,20.40
2022-10-20T22:31:39.773Z,20.40
2022-10-20T22:34:08.079Z,20.40
2022-10-20T22:36:35.602Z,20.40
2022-10-20T22:39:03.303Z,20.40
2022-10-20T22:41:30.655Z,20.40
2022-10-20T22:43:58.582Z,20.30
2022-10-20T22:46:26.066Z,20.30
2022-10-20T22:48:53.709Z,20.30
2022-10-20T22:51:21.241Z,20.30
2022-10-20T22:53:48.720Z,20.30
2022-10-20T22:56:19.799Z,20.30
2022-10-20T22:58:48.185Z,20.20
2022-10-20T23:01:18.128Z,20.30
2022-10-20T23:03:46.621Z,20.20
2022-10-20T23:06:20.500Z,20.20
2022-10-20T23:08:51.746Z,20.20
2022-10-20T23:11:19.697Z,20.20
2022-10-20T23:13:47.700Z,20.20
2022-10-20T23:16:15.566Z,20.20
2022-10-20T23:18:43.058Z,20.20
2022-10-20T23:21:11.910Z,20.10
2022-10-20T23:23:39.248Z,20.10
2022-10-20T23:26:07.918Z,20.20
2022-10-20T23:28:36.586Z,20.10
2022-10-20T23:31:09.570Z,20.10
2022-10-20T23:33:38.025Z,20.20
2022-10-20T23:36:05.811Z,20.10
2022-10-20T23:38:33.347Z,20.10
2022-10-20T23:41:00.694Z,20.20
2022-10-20T23:43:28.335Z,20.20
2022-10-20T23:45:55.637Z,20.20
2022-10-20T23:48:22.995Z,20.20
2022-10-20T23:50:50.524Z,20.20
2022-10-20T23:53:18.088Z,20.20
2022-10-20T23:55:45.560Z,20.20
2022-10-20T23:58:13.091Z,20.20
